Hovedside
METAR-TAF:

METAR-TAF

Lufthavner :

Salem Municipal Airport (McNary Field)

Salem, Oregon, USA

breddegrad: 44-54-28N, lengdegrad: 122-59-42W, høyde over havet: 64 m

Gjeldene værobservasjon

Denne rapporten ble laget for 53 minutter siden, klokken 21:56 UTC
Vind 9 kt fra Nord
Temperatur 26°C
Luftfuktighet 21%
Trykk 1023 hPa
Sikt: 16.1 km
Skyfri himmel

METAR: KSLE 172156Z 36009KT 10SM CLR 26/02 A3020 RMK AO2 SLP224 T02610022

Tid: 15:49 (22:49 UTC)

Varsel

Denne rapporten ble laget for 5 timer og 26 minutter siden, klokken 17:23 UTC
Varsel gyldig fra 17. klokken 18 UTC til 18. klokken 18 UTC
Vind 5 kt fra Nord
Sikt: 10 km
Skyfri himmel
Fra 17. klokken 2000 UTC
Vind 10 kt fra Nord
Sikt: 10 km
Skyfri himmel
Fra 18. klokken 0300 UTC
Vind 5 kt fra Nord-nordvest
Sikt: 10 km
Skyfri himmel
Fra 18. klokken 0800 UTC
Vind 3 kt fra skiftende retning
Sikt: 10 km
Skyfri himmel

TAF: KSLE 171723Z 1718/1818 01005KT P6SM SKC FM172000 36010KT P6SM SKC FM180300 33005KT P6SM SKC FM180800 VRB03KT P6SM SKC

Værobservasjoner og værvarsel for over 4000 flyplasser (METAR- og TAF-rapporter).

Tilgjengelige stasjoner er representert av de røde og gule prikkene på kartet.

Hold musepekeren over prikken for å se navnet på stasjonen.

Klikk så for å se værobservasjoner og -varsler.

For å forandre kartet kan du klikke på den grønne knappen med svart kryss for å zoome inn, på den grønne knappen med strek for å zoome ut, eller på de grønne pilene for å se tilstøtende kart.


METAR-TAF: